首页
METAR-TAF:

METAR-TAF

机场 :

布雷斯特-布列塔尼機場

布雷斯特, 法国

纬度: 48-27N, 经度: 004-25W, 海拔: 99米

当前天气观测

该预报发布于32分钟前的01:00 UTC
风速2节,风向多变
温度 8°C
湿度 93%
气压 1018 hPa
能见度10公里或以上
1500米以下无云,无积雨云

METAR: LFRB 230100Z AUTO VRB02KT CAVOK 08/07 Q1018 TEMPO 0500 FG VV///

时间: 03:32 (01:32 UTC)

预报

该预报发布于2小时和32分钟前的23:00 UTC
预报有效从23日的 00点(UTC)到 24日的 06点(UTC)
风速3节,风向多变
能见度10公里或以上
1500米以下无云,无积雨云
短暂存在
从 23日的 00点(UTC)到 23日的 07点(UTC)
能見度: 4000
轻雾
几率 30% :
短暂存在
从 23日的 02点(UTC)到 23日的 06点(UTC)
能見度: 0500
成为
从 23日的 14点(UTC)到 23日的 16点(UTC)
风速10节,风向
短暂存在
从 23日的 22点(UTC)到 24日的 06点(UTC)
能見度: 3000
轻雾
几率 30% :
短暂存在
从 24日的 00点(UTC)到 24日的 06点(UTC)
能見度: 0300

TAF: LFRB 222300Z 2300/2406 VRB03KT CAVOK TEMPO 2300/2307 4000 BR PROB30 TEMPO 2302/2306 0500 FG VV/// BECMG 2314/2316 36010KT TEMPO 2322/2406 3000 BR PROB30 TEMPO 2400/2406 0300 FG VV///

超过4000个机场的气象观测和天气预报(METAR&TAF报告)。

可查询的气象台以黄色和红色小点在地图上表示。

将鼠标移到小点上方,可查看气象台名称。

然后点击查看天气观测和预报。

如需切换地图:点击带黑十字的绿色按钮放大地图;点击带横线的绿色按钮缩小地图;或者点击绿色箭头查看邻近地区的地图。


METAR-TAF: